Romney, IN (47981)

10:02 PM EDT on March 29, 2015 (GMT -0400)
Lafayette, Indiana area | | Change Station
CLOSE
Current Station
Personal Weather Station
Location: Romney, IN
Elevation: 755 ft
Nearby Weather Stations

Elev 755 ft 40.26 °N, 86.89 °W | Updated 9 minutes ago

Mostly Cloudy
Mostly Cloudy
44.2 °F
Feels Like 38 °F
N
13.0
Wind Variable Wind from SW
Gusts 16.0 mph

Today
High -- | Low -- °F
--% Chance of Precip.
Yesterday
High -- | Low -- °F
Precip. -- in
7:36 AM 8:08 PM
Waxing Gibbous, 76% visible
Pressure 29.92 in
Visibility 10.0 miles
Clouds Overcast 6000 ft
Windchill 38 °F
Dew Point 39 °F
Humidity 82%
Rainfall 0.04 in
Snow Depth Not available.
UV 0 out of 12
Pollen 7.90 out of 12
Air Quality Not available.
Flu Activity Not available.
METAR KLAF 300154Z AUTO 24007KT 10SM OVC060 07/03 A2991 RMK AO2 SLP130 T00670028 TSNO

More Conditions Fewer Conditions

Pressure 29.92 in
Visibility 10.0 miles
Clouds Overcast 6000 ft
Windchill 38 °F
Dew Point 39 °F
Humidity 82%
Rainfall 0.04 in
Snow Depth Not available.
UV 0 out of 12
Pollen 7.90 out of 12
Air Quality Not available.
Flu Activity Not available.
METAR KLAF 300154Z AUTO 24007KT 10SM OVC060 07/03 A2991 RMK AO2 SLP130 T00670028 TSNO

More Conditions Fewer Conditions

10-Day Weather Forecast

Almanac

Astronomy

Mar. 29, 2015 Rise Set
Actual Time
Civil Twilight
Nautical Twilight
Astronomical Twilight
Moon
Length of Visible Light
Length of Day
Tomorrow will be .
, % of the Moon is Illuminated

Today's Extremes

State Highs State Lows

Community

WunderPhotos

Upload Photos

1,809,405 photos uploaded!

WunderBlogs® & News

Nearby

Air Quality

  Air Quality AQ Index Pollutant
Not available.

Snow Depth

Station Depth Elevation

Earthquake Activity

City Distance Mag. Time & Date
Minimum magnitude displayed is 2.5.

Coastal Water Temperatures

Place Temperature

Stations

Nearby Weather Stations

Station Location Temp. Windchill Dew Point Humidity Wind Precip. Elev Updated Type